sensor_id;sensor_type;location;lat;lon;timestamp;temperature;humidity
78212;SHT31;67490;52.086;5.122;2023-03-11T00:00:06;4.60;61.54
78212;SHT31;67490;52.086;5.122;2023-03-11T00:02:57;4.58;60.30
78212;SHT31;67490;52.086;5.122;2023-03-11T00:05:44;4.66;61.60
78212;SHT31;67490;52.086;5.122;2023-03-11T00:08:29;4.60;59.51
78212;SHT31;67490;52.086;5.122;2023-03-11T00:11:15;4.60;59.91
78212;SHT31;67490;52.086;5.122;2023-03-11T00:14:00;4.63;59.40
78212;SHT31;67490;52.086;5.122;2023-03-11T00:16:44;4.58;61.09
78212;SHT31;67490;52.086;5.122;2023-03-11T00:19:28;4.63;60.60
78212;SHT31;67490;52.086;5.122;2023-03-11T00:22:12;4.68;64.85
78212;SHT31;67490;52.086;5.122;2023-03-11T00:24:57;4.65;66.63
78212;SHT31;67490;52.086;5.122;2023-03-11T00:27:43;4.73;63.55
78212;SHT31;67490;52.086;5.122;2023-03-11T00:30:28;4.75;63.19
78212;SHT31;67490;52.086;5.122;2023-03-11T00:33:14;4.75;63.58
78212;SHT31;67490;52.086;5.122;2023-03-11T00:35:58;4.79;63.43
78212;SHT31;67490;52.086;5.122;2023-03-11T00:38:43;4.83;61.43
78212;SHT31;67490;52.086;5.122;2023-03-11T00:41:27;4.89;63.63
78212;SHT31;67490;52.086;5.122;2023-03-11T00:44:13;4.86;57.90
78212;SHT31;67490;52.086;5.122;2023-03-11T00:46:57;4.77;59.93
78212;SHT31;67490;52.086;5.122;2023-03-11T00:49:42;4.69;60.75
78212;SHT31;67490;52.086;5.122;2023-03-11T00:52:26;4.76;60.31
78212;SHT31;67490;52.086;5.122;2023-03-11T00:55:14;4.70;62.04
78212;SHT31;67490;52.086;5.122;2023-03-11T00:58:03;4.62;59.74
78212;SHT31;67490;52.086;5.122;2023-03-11T01:00:48;4.63;61.55
78212;SHT31;67490;52.086;5.122;2023-03-11T01:03:33;4.60;62.23
78212;SHT31;67490;52.086;5.122;2023-03-11T01:06:17;4.66;61.99
78212;SHT31;67490;52.086;5.122;2023-03-11T01:09:02;4.58;60.10
78212;SHT31;67490;52.086;5.122;2023-03-11T01:11:48;4.56;60.43
78212;SHT31;67490;52.086;5.122;2023-03-11T01:14:32;4.66;60.82
78212;SHT31;67490;52.086;5.122;2023-03-11T01:17:18;4.62;61.62
78212;SHT31;67490;52.086;5.122;2023-03-11T01:20:05;4.66;60.84
78212;SHT31;67490;52.086;5.122;2023-03-11T01:22:52;4.56;58.56
78212;SHT31;67490;52.086;5.122;2023-03-11T01:25:37;4.50;60.32
78212;SHT31;67490;52.086;5.122;2023-03-11T01:28:21;4.62;62.89
78212;SHT31;67490;52.086;5.122;2023-03-11T01:31:07;4.59;61.83
78212;SHT31;67490;52.086;5.122;2023-03-11T01:33:53;4.65;61.05
78212;SHT31;67490;52.086;5.122;2023-03-11T01:36:38;4.65;63.03
78212;SHT31;67490;52.086;5.122;2023-03-11T01:39:22;4.76;60.01
78212;SHT31;67490;52.086;5.122;2023-03-11T01:42:06;4.76;60.07
78212;SHT31;67490;52.086;5.122;2023-03-11T01:44:51;4.75;61.59
78212;SHT31;67490;52.086;5.122;2023-03-11T01:47:38;4.83;61.84
78212;SHT31;67490;52.086;5.122;2023-03-11T01:50:26;4.83;61.74
78212;SHT31;67490;52.086;5.122;2023-03-11T01:53:16;4.73;61.86
78212;SHT31;67490;52.086;5.122;2023-03-11T01:56:03;4.77;60.63
78212;SHT31;67490;52.086;5.122;2023-03-11T01:58:50;4.73;60.04
78212;SHT31;67490;52.086;5.122;2023-03-11T02:01:44;4.70;62.68
78212;SHT31;67490;52.086;5.122;2023-03-11T02:04:35;4.62;59.39
78212;SHT31;67490;52.086;5.122;2023-03-11T02:07:21;4.62;58.44
78212;SHT31;67490;52.086;5.122;2023-03-11T02:10:07;4.66;60.24
78212;SHT31;67490;52.086;5.122;2023-03-11T02:12:52;4.68;63.24
78212;SHT31;67490;52.086;5.122;2023-03-11T02:15:37;4.72;59.28
78212;SHT31;67490;52.086;5.122;2023-03-11T02:18:22;4.73;61.01
78212;SHT31;67490;52.086;5.122;2023-03-11T02:21:17;4.80;58.77
78212;SHT31;67490;52.086;5.122;2023-03-11T02:24:13;4.73;60.34
78212;SHT31;67490;52.086;5.122;2023-03-11T02:27:02;4.79;60.21
78212;SHT31;67490;52.086;5.122;2023-03-11T02:29:50;4.73;58.90
78212;SHT31;67490;52.086;5.122;2023-03-11T02:32:35;4.58;59.92
78212;SHT31;67490;52.086;5.122;2023-03-11T02:35:21;4.60;60.87
78212;SHT31;67490;52.086;5.122;2023-03-11T02:38:07;4.62;62.42
78212;SHT31;67490;52.086;5.122;2023-03-11T02:40:53;4.68;62.56
78212;SHT31;67490;52.086;5.122;2023-03-11T02:43:44;4.69;63.97
78212;SHT31;67490;52.086;5.122;2023-03-11T02:46:30;4.68;61.75
78212;SHT31;67490;52.086;5.122;2023-03-11T02:49:16;4.72;62.42
78212;SHT31;67490;52.086;5.122;2023-03-11T02:52:00;4.68;62.82
78212;SHT31;67490;52.086;5.122;2023-03-11T02:54:45;4.68;62.51
78212;SHT31;67490;52.086;5.122;2023-03-11T02:57:29;4.62;62.08
78212;SHT31;67490;52.086;5.122;2023-03-11T03:03:01;4.60;63.20
78212;SHT31;67490;52.086;5.122;2023-03-11T03:05:46;4.56;63.44
78212;SHT31;67490;52.086;5.122;2023-03-11T03:08:31;4.63;64.82
78212;SHT31;67490;52.086;5.122;2023-03-11T03:11:15;4.59;64.87
78212;SHT31;67490;52.086;5.122;2023-03-11T03:14:00;4.60;64.33
78212;SHT31;67490;52.086;5.122;2023-03-11T03:16:46;4.58;64.09
78212;SHT31;67490;52.086;5.122;2023-03-11T03:19:31;4.56;64.96
78212;SHT31;67490;52.086;5.122;2023-03-11T03:22:15;4.53;65.00
78212;SHT31;67490;52.086;5.122;2023-03-11T03:24:59;4.59;65.11
78212;SHT31;67490;52.086;5.122;2023-03-11T03:27:43;4.60;65.64
78212;SHT31;67490;52.086;5.122;2023-03-11T03:30:28;4.59;64.62
78212;SHT31;67490;52.086;5.122;2023-03-11T03:33:14;4.59;64.32
78212;SHT31;67490;52.086;5.122;2023-03-11T03:35:59;4.58;64.62
78212;SHT31;67490;52.086;5.122;2023-03-11T03:38:43;4.58;64.26
78212;SHT31;67490;52.086;5.122;2023-03-11T03:41:27;4.58;64.41
78212;SHT31;67490;52.086;5.122;2023-03-11T03:44:12;4.58;64.25
78212;SHT31;67490;52.086;5.122;2023-03-11T03:46:56;4.60;63.86
78212;SHT31;67490;52.086;5.122;2023-03-11T03:49:42;4.46;63.99
78212;SHT31;67490;52.086;5.122;2023-03-11T03:52:27;4.46;63.84
78212;SHT31;67490;52.086;5.122;2023-03-11T03:55:11;4.42;65.42
78212;SHT31;67490;52.086;5.122;2023-03-11T03:57:56;4.45;64.46
78212;SHT31;67490;52.086;5.122;2023-03-11T04:00:40;4.45;63.91
78212;SHT31;67490;52.086;5.122;2023-03-11T04:03:27;4.44;64.17
78212;SHT31;67490;52.086;5.122;2023-03-11T04:06:16;4.35;64.11
78212;SHT31;67490;52.086;5.122;2023-03-11T04:09:00;4.41;65.48
78212;SHT31;67490;52.086;5.122;2023-03-11T04:11:45;4.38;62.50
78212;SHT31;67490;52.086;5.122;2023-03-11T04:14:29;4.29;64.88
78212;SHT31;67490;52.086;5.122;2023-03-11T04:17:14;4.28;65.07
78212;SHT31;67490;52.086;5.122;2023-03-11T04:20:00;4.27;65.49
78212;SHT31;67490;52.086;5.122;2023-03-11T04:22:46;4.37;65.72
78212;SHT31;67490;52.086;5.122;2023-03-11T04:25:30;4.37;65.54
78212;SHT31;67490;52.086;5.122;2023-03-11T04:28:15;4.37;65.97
78212;SHT31;67490;52.086;5.122;2023-03-11T04:30:59;4.38;65.31
78212;SHT31;67490;52.086;5.122;2023-03-11T04:33:44;4.38;65.49
78212;SHT31;67490;52.086;5.122;2023-03-11T04:36:30;4.42;64.50
78212;SHT31;67490;52.086;5.122;2023-03-11T04:39:15;4.37;64.55
78212;SHT31;67490;52.086;5.122;2023-03-11T04:42:00;4.37;64.45
78212;SHT31;67490;52.086;5.122;2023-03-11T04:44:44;4.37;64.02
78212;SHT31;67490;52.086;5.122;2023-03-11T04:47:29;4.32;64.34
78212;SHT31;67490;52.086;5.122;2023-03-11T04:50:14;4.32;65.16
78212;SHT31;67490;52.086;5.122;2023-03-11T04:52:58;4.37;64.50
78212;SHT31;67490;52.086;5.122;2023-03-11T04:55:44;4.32;64.96
78212;SHT31;67490;52.086;5.122;2023-03-11T04:58:30;4.25;64.59
78212;SHT31;67490;52.086;5.122;2023-03-11T05:01:15;4.28;63.34
78212;SHT31;67490;52.086;5.122;2023-03-11T05:04:00;4.35;64.22
78212;SHT31;67490;52.086;5.122;2023-03-11T05:06:44;4.34;62.01
78212;SHT31;67490;52.086;5.122;2023-03-11T05:09:28;4.38;63.58
78212;SHT31;67490;52.086;5.122;2023-03-11T05:12:14;4.35;63.90
78212;SHT31;67490;52.086;5.122;2023-03-11T05:14:58;4.41;62.17
78212;SHT31;67490;52.086;5.122;2023-03-11T05:17:43;4.42;63.21
78212;SHT31;67490;52.086;5.122;2023-03-11T05:20:27;4.45;62.92
78212;SHT31;67490;52.086;5.122;2023-03-11T05:23:11;4.41;62.90
78212;SHT31;67490;52.086;5.122;2023-03-11T05:25:56;4.39;61.09
78212;SHT31;67490;52.086;5.122;2023-03-11T05:28:42;4.46;64.16
78212;SHT31;67490;52.086;5.122;2023-03-11T05:31:26;4.46;64.58
78212;SHT31;67490;52.086;5.122;2023-03-11T05:34:11;4.45;63.91
78212;SHT31;67490;52.086;5.122;2023-03-11T05:36:56;4.42;64.07
78212;SHT31;67490;52.086;5.122;2023-03-11T05:39:40;4.42;63.67
78212;SHT31;67490;52.086;5.122;2023-03-11T05:42:24;4.41;65.16
78212;SHT31;67490;52.086;5.122;2023-03-11T05:45:10;4.49;65.26
78212;SHT31;67490;52.086;5.122;2023-03-11T05:47:55;4.50;65.21
78212;SHT31;67490;52.086;5.122;2023-03-11T05:50:40;4.44;64.57
78212;SHT31;67490;52.086;5.122;2023-03-11T05:53:24;4.49;65.54
78212;SHT31;67490;52.086;5.122;2023-03-11T05:56:08;4.53;64.67
78212;SHT31;67490;52.086;5.122;2023-03-11T05:58:56;4.53;64.38
78212;SHT31;67490;52.086;5.122;2023-03-11T06:01:42;4.49;64.45
78212;SHT31;67490;52.086;5.122;2023-03-11T06:04:27;4.53;65.23
78212;SHT31;67490;52.086;5.122;2023-03-11T06:07:12;4.52;64.76
78212;SHT31;67490;52.086;5.122;2023-03-11T06:09:58;4.48;66.15
78212;SHT31;67490;52.086;5.122;2023-03-11T06:12:43;4.50;66.32
78212;SHT31;67490;52.086;5.122;2023-03-11T06:15:28;4.52;66.13
78212;SHT31;67490;52.086;5.122;2023-03-11T06:18:14;4.49;63.61
78212;SHT31;67490;52.086;5.122;2023-03-11T06:21:00;4.52;65.48
78212;SHT31;67490;52.086;5.122;2023-03-11T06:23:46;4.52;65.11
78212;SHT31;67490;52.086;5.122;2023-03-11T06:26:30;4.55;64.23
78212;SHT31;67490;52.086;5.122;2023-03-11T06:29:14;4.60;64.45
78212;SHT31;67490;52.086;5.122;2023-03-11T06:31:59;4.63;64.36
78212;SHT31;67490;52.086;5.122;2023-03-11T06:34:49;4.66;63.48
78212;SHT31;67490;52.086;5.122;2023-03-11T06:37:34;4.62;63.06
78212;SHT31;67490;52.086;5.122;2023-03-11T06:40:19;4.62;63.51
78212;SHT31;67490;52.086;5.122;2023-03-11T06:43:03;4.63;64.09
78212;SHT31;67490;52.086;5.122;2023-03-11T06:45:48;4.68;63.90
78212;SHT31;67490;52.086;5.122;2023-03-11T06:48:33;4.72;63.81
78212;SHT31;67490;52.086;5.122;2023-03-11T06:51:19;4.75;63.61
78212;SHT31;67490;52.086;5.122;2023-03-11T06:54:04;4.79;63.44
78212;SHT31;67490;52.086;5.122;2023-03-11T06:56:48;4.77;64.07
78212;SHT31;67490;52.086;5.122;2023-03-11T06:59:33;4.87;64.20
78212;SHT31;67490;52.086;5.122;2023-03-11T07:02:17;4.89;63.10
78212;SHT31;67490;52.086;5.122;2023-03-11T07:05:02;4.86;63.25
78212;SHT31;67490;52.086;5.122;2023-03-11T07:07:48;4.89;62.71
78212;SHT31;67490;52.086;5.122;2023-03-11T07:10:32;4.96;63.30
78212;SHT31;67490;52.086;5.122;2023-03-11T07:13:17;5.00;63.28
78212;SHT31;67490;52.086;5.122;2023-03-11T07:16:04;4.98;62.53
78212;SHT31;67490;52.086;5.122;2023-03-11T07:18:50;4.98;62.44
78212;SHT31;67490;52.086;5.122;2023-03-11T07:21:35;5.03;62.34
78212;SHT31;67490;52.086;5.122;2023-03-11T07:24:20;5.03;62.56
78212;SHT31;67490;52.086;5.122;2023-03-11T07:27:05;5.07;61.13
78212;SHT31;67490;52.086;5.122;2023-03-11T07:29:50;5.14;60.93
78212;SHT31;67490;52.086;5.122;2023-03-11T07:32:34;5.14;60.89
78212;SHT31;67490;52.086;5.122;2023-03-11T07:35:19;5.20;61.83
78212;SHT31;67490;52.086;5.122;2023-03-11T07:38:04;5.27;61.34
78212;SHT31;67490;52.086;5.122;2023-03-11T07:40:58;5.35;60.88
78212;SHT31;67490;52.086;5.122;2023-03-11T07:43:43;5.44;61.66
78212;SHT31;67490;52.086;5.122;2023-03-11T07:46:28;5.52;60.99
78212;SHT31;67490;52.086;5.122;2023-03-11T07:49:13;5.55;60.51
78212;SHT31;67490;52.086;5.122;2023-03-11T07:51:58;5.60;59.62
78212;SHT31;67490;52.086;5.122;2023-03-11T07:54:43;5.68;59.78
78212;SHT31;67490;52.086;5.122;2023-03-11T07:57:29;5.68;58.94
78212;SHT31;67490;52.086;5.122;2023-03-11T08:00:15;5.73;58.86
78212;SHT31;67490;52.086;5.122;2023-03-11T08:02:59;5.78;58.91
78212;SHT31;67490;52.086;5.122;2023-03-11T08:05:44;5.78;59.15
78212;SHT31;67490;52.086;5.122;2023-03-11T08:08:28;5.87;59.38
78212;SHT31;67490;52.086;5.122;2023-03-11T08:11:13;5.86;58.88
78212;SHT31;67490;52.086;5.122;2023-03-11T08:14:00;5.89;58.35
78212;SHT31;67490;52.086;5.122;2023-03-11T08:16:47;5.90;57.91
78212;SHT31;67490;52.086;5.122;2023-03-11T08:19:32;5.96;58.23
78212;SHT31;67490;52.086;5.122;2023-03-11T08:22:16;6.00;58.62
78212;SHT31;67490;52.086;5.122;2023-03-11T08:25:01;6.07;57.80
78212;SHT31;67490;52.086;5.122;2023-03-11T08:27:45;6.10;57.30
78212;SHT31;67490;52.086;5.122;2023-03-11T08:30:31;6.27;58.69
78212;SHT31;67490;52.086;5.122;2023-03-11T08:33:16;6.30;58.24
78212;SHT31;67490;52.086;5.122;2023-03-11T08:36:00;6.20;57.13
78212;SHT31;67490;52.086;5.122;2023-03-11T08:38:45;6.28;58.04
78212;SHT31;67490;52.086;5.122;2023-03-11T08:41:31;6.38;57.49
78212;SHT31;67490;52.086;5.122;2023-03-11T08:44:15;6.34;57.61
78212;SHT31;67490;52.086;5.122;2023-03-11T08:47:01;6.42;58.78
78212;SHT31;67490;52.086;5.122;2023-03-11T08:49:45;6.45;56.49
78212;SHT31;67490;52.086;5.122;2023-03-11T08:52:30;6.42;56.39
78212;SHT31;67490;52.086;5.122;2023-03-11T08:55:16;6.61;55.60
78212;SHT31;67490;52.086;5.122;2023-03-11T08:58:06;6.63;56.01
78212;SHT31;67490;52.086;5.122;2023-03-11T09:00:50;6.81;55.54
78212;SHT31;67490;52.086;5.122;2023-03-11T09:03:38;6.91;56.31
78212;SHT31;67490;52.086;5.122;2023-03-11T09:06:22;6.95;56.08
78212;SHT31;67490;52.086;5.122;2023-03-11T09:09:08;7.05;55.58
78212;SHT31;67490;52.086;5.122;2023-03-11T09:11:52;6.82;59.34
78212;SHT31;67490;52.086;5.122;2023-03-11T09:14:37;7.03;57.22
78212;SHT31;67490;52.086;5.122;2023-03-11T09:17:22;7.09;53.21
78212;SHT31;67490;52.086;5.122;2023-03-11T09:20:11;7.10;56.83
78212;SHT31;67490;52.086;5.122;2023-03-11T09:22:56;7.10;53.96
78212;SHT31;67490;52.086;5.122;2023-03-11T09:25:40;7.13;53.92
78212;SHT31;67490;52.086;5.122;2023-03-11T09:28:25;7.13;53.57
78212;SHT31;67490;52.086;5.122;2023-03-11T09:31:10;7.19;54.03
78212;SHT31;67490;52.086;5.122;2023-03-11T09:33:54;7.23;54.10
78212;SHT31;67490;52.086;5.122;2023-03-11T09:36:41;7.26;53.11
78212;SHT31;67490;52.086;5.122;2023-03-11T09:39:26;7.22;52.43
78212;SHT31;67490;52.086;5.122;2023-03-11T09:42:18;7.28;53.56
78212;SHT31;67490;52.086;5.122;2023-03-11T09:45:13;7.34;52.96
78212;SHT31;67490;52.086;5.122;2023-03-11T09:48:08;7.42;53.95
78212;SHT31;67490;52.086;5.122;2023-03-11T09:50:59;7.33;53.08
78212;SHT31;67490;52.086;5.122;2023-03-11T09:53:55;7.20;53.63
78212;SHT31;67490;52.086;5.122;2023-03-11T09:56:43;7.23;52.34
78212;SHT31;67490;52.086;5.122;2023-03-11T09:59:30;7.47;53.83
78212;SHT31;67490;52.086;5.122;2023-03-11T10:02:18;7.42;54.78
78212;SHT31;67490;52.086;5.122;2023-03-11T10:05:12;7.64;53.72
78212;SHT31;67490;52.086;5.122;2023-03-11T10:08:02;7.58;53.30
78212;SHT31;67490;52.086;5.122;2023-03-11T10:10:56;7.65;52.01
78212;SHT31;67490;52.086;5.122;2023-03-11T10:13:55;7.85;52.55
78212;SHT31;67490;52.086;5.122;2023-03-11T10:16:49;7.74;52.85
78212;SHT31;67490;52.086;5.122;2023-03-11T10:19:45;7.91;53.40
78212;SHT31;67490;52.086;5.122;2023-03-11T10:22:40;7.89;52.06
78212;SHT31;67490;52.086;5.122;2023-03-11T10:25:32;7.84;51.31
78212;SHT31;67490;52.086;5.122;2023-03-11T10:28:27;7.74;53.00
78212;SHT31;67490;52.086;5.122;2023-03-11T10:31:21;7.74;53.13
78212;SHT31;67490;52.086;5.122;2023-03-11T10:34:15;7.78;53.42
78212;SHT31;67490;52.086;5.122;2023-03-11T10:37:05;7.91;55.72
78212;SHT31;67490;52.086;5.122;2023-03-11T10:39:54;8.08;53.39
78212;SHT31;67490;52.086;5.122;2023-03-11T10:42:45;7.89;54.96
78212;SHT31;67490;52.086;5.122;2023-03-11T10:45:36;7.77;53.08
78212;SHT31;67490;52.086;5.122;2023-03-11T10:48:23;7.73;54.32
78212;SHT31;67490;52.086;5.122;2023-03-11T10:51:14;7.73;53.56
78212;SHT31;67490;52.086;5.122;2023-03-11T10:54:02;7.64;55.10
78212;SHT31;67490;52.086;5.122;2023-03-11T10:56:53;7.74;54.53
78212;SHT31;67490;52.086;5.122;2023-03-11T10:59:46;8.06;53.17
78212;SHT31;67490;52.086;5.122;2023-03-11T11:02:37;7.91;55.81
78212;SHT31;67490;52.086;5.122;2023-03-11T11:05:28;7.77;52.94
78212;SHT31;67490;52.086;5.122;2023-03-11T11:08:14;7.95;52.94
78212;SHT31;67490;52.086;5.122;2023-03-11T11:11:02;7.74;54.39
78212;SHT31;67490;52.086;5.122;2023-03-11T11:13:55;7.87;53.83
78212;SHT31;67490;52.086;5.122;2023-03-11T11:16:40;7.77;52.52
78212;SHT31;67490;52.086;5.122;2023-03-11T11:19:26;7.70;55.75
78212;SHT31;67490;52.086;5.122;2023-03-11T11:22:17;7.88;56.15
78212;SHT31;67490;52.086;5.122;2023-03-11T11:25:02;7.98;53.31
78212;SHT31;67490;52.086;5.122;2023-03-11T11:27:53;8.01;55.49
78212;SHT31;67490;52.086;5.122;2023-03-11T11:30:51;8.09;52.31
78212;SHT31;67490;52.086;5.122;2023-03-11T11:33:48;7.96;53.15
78212;SHT31;67490;52.086;5.122;2023-03-11T11:36:36;7.75;53.88
78212;SHT31;67490;52.086;5.122;2023-03-11T11:39:26;7.89;55.28
78212;SHT31;67490;52.086;5.122;2023-03-11T11:42:13;7.98;53.28
78212;SHT31;67490;52.086;5.122;2023-03-11T11:45:05;8.26;53.12
78212;SHT31;67490;52.086;5.122;2023-03-11T11:47:58;8.16;53.34
78212;SHT31;67490;52.086;5.122;2023-03-11T11:50:47;8.06;54.61
78212;SHT31;67490;52.086;5.122;2023-03-11T11:53:39;8.08;54.89
78212;SHT31;67490;52.086;5.122;2023-03-11T11:56:25;8.10;53.25
78212;SHT31;67490;52.086;5.122;2023-03-11T11:59:15;7.88;53.99
78212;SHT31;67490;52.086;5.122;2023-03-11T12:02:17;8.02;54.23
78212;SHT31;67490;52.086;5.122;2023-03-11T12:05:10;7.99;52.49
78212;SHT31;67490;52.086;5.122;2023-03-11T12:08:10;8.02;54.97
78212;SHT31;67490;52.086;5.122;2023-03-11T12:11:01;8.02;55.46
78212;SHT31;67490;52.086;5.122;2023-03-11T12:13:55;8.16;54.98
78212;SHT31;67490;52.086;5.122;2023-03-11T12:16:53;8.08;53.20
78212;SHT31;67490;52.086;5.122;2023-03-11T12:19:47;8.09;52.36
78212;SHT31;67490;52.086;5.122;2023-03-11T12:22:52;8.05;53.52
78212;SHT31;67490;52.086;5.122;2023-03-11T12:25:48;7.81;55.69
78212;SHT31;67490;52.086;5.122;2023-03-11T12:28:43;8.06;53.99
78212;SHT31;67490;52.086;5.122;2023-03-11T12:31:35;8.10;51.87
78212;SHT31;67490;52.086;5.122;2023-03-11T12:34:23;8.25;55.61
78212;SHT31;67490;52.086;5.122;2023-03-11T12:37:13;8.32;52.49
78212;SHT31;67490;52.086;5.122;2023-03-11T12:40:45;8.49;52.62
78212;SHT31;67490;52.086;5.122;2023-03-11T12:43:59;8.54;49.59
78212;SHT31;67490;52.086;5.122;2023-03-11T12:50:38;8.15;49.71
78212;SHT31;67490;52.086;5.122;2023-03-11T12:53:43;8.12;47.08
78212;SHT31;67490;52.086;5.122;2023-03-11T12:56:33;8.06;47.52
78212;SHT31;67490;52.086;5.122;2023-03-11T12:59:47;8.19;50.47
78212;SHT31;67490;52.086;5.122;2023-03-11T13:03:11;8.19;51.43
78212;SHT31;67490;52.086;5.122;2023-03-11T13:06:14;8.30;49.55
78212;SHT31;67490;52.086;5.122;2023-03-11T13:09:03;8.29;49.53
78212;SHT31;67490;52.086;5.122;2023-03-11T13:11:56;8.45;49.09
78212;SHT31;67490;52.086;5.122;2023-03-11T13:14:44;8.40;50.28
78212;SHT31;67490;52.086;5.122;2023-03-11T13:17:29;8.46;50.03
78212;SHT31;67490;52.086;5.122;2023-03-11T13:20:43;8.45;48.88
78212;SHT31;67490;52.086;5.122;2023-03-11T13:23:31;8.47;46.48
78212;SHT31;67490;52.086;5.122;2023-03-11T13:26:28;8.39;48.42
78212;SHT31;67490;52.086;5.122;2023-03-11T13:29:40;8.53;46.61
78212;SHT31;67490;52.086;5.122;2023-03-11T13:32:55;8.49;46.76
78212;SHT31;67490;52.086;5.122;2023-03-11T13:35:57;8.73;45.24
78212;SHT31;67490;52.086;5.122;2023-03-11T13:39:14;8.42;49.21
78212;SHT31;67490;52.086;5.122;2023-03-11T13:42:13;8.45;47.63
78212;SHT31;67490;52.086;5.122;2023-03-11T13:45:01;8.60;45.51
78212;SHT31;67490;52.086;5.122;2023-03-11T13:47:52;8.67;47.99
78212;SHT31;67490;52.086;5.122;2023-03-11T13:50:42;8.45;47.15
78212;SHT31;67490;52.086;5.122;2023-03-11T13:53:36;8.57;46.99
78212;SHT31;67490;52.086;5.122;2023-03-11T13:56:26;8.39;47.82
78212;SHT31;67490;52.086;5.122;2023-03-11T13:59:15;8.68;48.29
78212;SHT31;67490;52.086;5.122;2023-03-11T14:02:11;8.46;48.41
78212;SHT31;67490;52.086;5.122;2023-03-11T14:05:03;8.59;48.89
78212;SHT31;67490;52.086;5.122;2023-03-11T14:07:49;8.64;49.94
78212;SHT31;67490;52.086;5.122;2023-03-11T14:10:33;8.57;50.86
78212;SHT31;67490;52.086;5.122;2023-03-11T14:13:18;8.60;46.34
78212;SHT31;67490;52.086;5.122;2023-03-11T14:16:07;8.64;45.21
78212;SHT31;67490;52.086;5.122;2023-03-11T14:19:02;8.63;44.39
78212;SHT31;67490;52.086;5.122;2023-03-11T14:21:50;8.84;46.58
78212;SHT31;67490;52.086;5.122;2023-03-11T14:24:35;8.73;49.32
78212;SHT31;67490;52.086;5.122;2023-03-11T14:27:21;8.88;46.41
78212;SHT31;67490;52.086;5.122;2023-03-11T14:30:06;9.00;50.29
78212;SHT31;67490;52.086;5.122;2023-03-11T14:33:01;8.88;48.18
78212;SHT31;67490;52.086;5.122;2023-03-11T14:35:51;8.67;48.07
78212;SHT31;67490;52.086;5.122;2023-03-11T14:38:42;8.95;45.98
78212;SHT31;67490;52.086;5.122;2023-03-11T14:41:27;9.03;44.55
78212;SHT31;67490;52.086;5.122;2023-03-11T14:44:12;9.12;43.28
78212;SHT31;67490;52.086;5.122;2023-03-11T14:47:05;9.03;40.11
78212;SHT31;67490;52.086;5.122;2023-03-11T14:49:52;8.83;40.96
78212;SHT31;67490;52.086;5.122;2023-03-11T14:52:42;8.80;40.18
78212;SHT31;67490;52.086;5.122;2023-03-11T14:55:32;8.87;39.54
78212;SHT31;67490;52.086;5.122;2023-03-11T14:58:27;8.92;39.10
78212;SHT31;67490;52.086;5.122;2023-03-11T15:01:18;8.91;40.36
78212;SHT31;67490;52.086;5.122;2023-03-11T15:04:09;9.03;41.36
78212;SHT31;67490;52.086;5.122;2023-03-11T15:06:55;8.89;41.82
78212;SHT31;67490;52.086;5.122;2023-03-11T15:09:41;8.81;42.72
78212;SHT31;67490;52.086;5.122;2023-03-11T15:12:32;8.66;44.37
78212;SHT31;67490;52.086;5.122;2023-03-11T15:15:23;8.76;43.30
78212;SHT31;67490;52.086;5.122;2023-03-11T15:18:21;8.64;43.34
78212;SHT31;67490;52.086;5.122;2023-03-11T15:21:12;8.46;42.34
78212;SHT31;67490;52.086;5.122;2023-03-11T15:24:00;8.43;42.37
78212;SHT31;67490;52.086;5.122;2023-03-11T15:26:56;8.71;41.68
78212;SHT31;67490;52.086;5.122;2023-03-11T15:29:49;8.98;42.93
78212;SHT31;67490;52.086;5.122;2023-03-11T15:32:38;9.05;41.24
78212;SHT31;67490;52.086;5.122;2023-03-11T15:35:25;9.10;40.62
78212;SHT31;67490;52.086;5.122;2023-03-11T15:38:19;9.11;41.26
78212;SHT31;67490;52.086;5.122;2023-03-11T15:41:04;9.11;38.93
78212;SHT31;67490;52.086;5.122;2023-03-11T15:43:48;8.73;40.11
78212;SHT31;67490;52.086;5.122;2023-03-11T15:46:34;8.76;41.14
78212;SHT31;67490;52.086;5.122;2023-03-11T15:49:19;8.71;40.78
78212;SHT31;67490;52.086;5.122;2023-03-11T15:52:04;8.91;41.10
78212;SHT31;67490;52.086;5.122;2023-03-11T15:54:48;8.84;41.77
78212;SHT31;67490;52.086;5.122;2023-03-11T15:57:33;8.80;38.57
78212;SHT31;67490;52.086;5.122;2023-03-11T16:00:19;8.84;40.24
78212;SHT31;67490;52.086;5.122;2023-03-11T16:03:06;8.61;41.59
78212;SHT31;67490;52.086;5.122;2023-03-11T16:05:51;8.46;41.58
78212;SHT31;67490;52.086;5.122;2023-03-11T16:08:35;8.46;41.48
78212;SHT31;67490;52.086;5.122;2023-03-11T16:11:20;8.56;40.85
78212;SHT31;67490;52.086;5.122;2023-03-11T16:14:05;8.77;42.23
78212;SHT31;67490;52.086;5.122;2023-03-11T16:16:49;8.84;42.84
78212;SHT31;67490;52.086;5.122;2023-03-11T16:19:35;8.73;43.42
78212;SHT31;67490;52.086;5.122;2023-03-11T16:22:22;8.52;45.18
78212;SHT31;67490;52.086;5.122;2023-03-11T16:25:18;8.59;43.77
78212;SHT31;67490;52.086;5.122;2023-03-11T16:28:04;8.73;43.24
78212;SHT31;67490;52.086;5.122;2023-03-11T16:30:49;8.47;42.17
78212;SHT31;67490;52.086;5.122;2023-03-11T16:33:35;8.40;42.65
78212;SHT31;67490;52.086;5.122;2023-03-11T16:36:20;8.61;41.82
78212;SHT31;67490;52.086;5.122;2023-03-11T16:39:04;8.81;41.60
78212;SHT31;67490;52.086;5.122;2023-03-11T16:41:49;8.70;43.92
78212;SHT31;67490;52.086;5.122;2023-03-11T16:44:33;8.59;42.73
78212;SHT31;67490;52.086;5.122;2023-03-11T16:47:18;8.54;44.04
78212;SHT31;67490;52.086;5.122;2023-03-11T16:50:03;8.40;48.20
78212;SHT31;67490;52.086;5.122;2023-03-11T16:52:49;8.28;50.64
78212;SHT31;67490;52.086;5.122;2023-03-11T16:55:34;8.39;49.52
78212;SHT31;67490;52.086;5.122;2023-03-11T16:58:19;8.49;50.20
78212;SHT31;67490;52.086;5.122;2023-03-11T17:01:04;8.50;50.09
78212;SHT31;67490;52.086;5.122;2023-03-11T17:03:49;8.70;49.75
78212;SHT31;67490;52.086;5.122;2023-03-11T17:06:33;8.71;51.84
78212;SHT31;67490;52.086;5.122;2023-03-11T17:09:19;8.67;50.83
78212;SHT31;67490;52.086;5.122;2023-03-11T17:12:07;8.61;52.84
78212;SHT31;67490;52.086;5.122;2023-03-11T17:14:52;8.59;53.39
78212;SHT31;67490;52.086;5.122;2023-03-11T17:17:36;8.59;52.95
78212;SHT31;67490;52.086;5.122;2023-03-11T17:20:21;8.57;51.66
78212;SHT31;67490;52.086;5.122;2023-03-11T17:23:05;8.60;53.77
78212;SHT31;67490;52.086;5.122;2023-03-11T17:25:51;8.57;52.07
78212;SHT31;67490;52.086;5.122;2023-03-11T17:28:36;8.61;51.83
78212;SHT31;67490;52.086;5.122;2023-03-11T17:31:23;8.46;53.34
78212;SHT31;67490;52.086;5.122;2023-03-11T17:34:07;8.46;53.54
78212;SHT31;67490;52.086;5.122;2023-03-11T17:36:51;8.52;53.49
78212;SHT31;67490;52.086;5.122;2023-03-11T17:39:36;8.50;53.68
78212;SHT31;67490;52.086;5.122;2023-03-11T17:42:22;8.47;53.47
78212;SHT31;67490;52.086;5.122;2023-03-11T17:45:08;8.45;52.39
78212;SHT31;67490;52.086;5.122;2023-03-11T17:47:52;8.43;53.87
78212;SHT31;67490;52.086;5.122;2023-03-11T17:50:37;8.42;53.57
78212;SHT31;67490;52.086;5.122;2023-03-11T17:53:22;8.33;52.76
78212;SHT31;67490;52.086;5.122;2023-03-11T17:56:07;8.28;53.05
78212;SHT31;67490;52.086;5.122;2023-03-11T17:58:53;8.25;55.14
78212;SHT31;67490;52.086;5.122;2023-03-11T18:01:38;8.13;55.03